Time;durP1;ratioP1;P1;durP2;ratioP2;P2;SDS_P1;SDS_P2;PMS_P1;PMS_P2;Temp;Humidity;BMP_temperature;BMP_pressure;BME280_temperature;BME280_humidity;BME280_pressure;Samples;Min_cycle;Max_cycle;Signal;HPM_P1;HPM_P2
2022/03/21 00:01:05;;;;;;;;;;;;;;;;;;5051386;28;20305;-69
2022/03/21 00:03:32;;;;;;;;;;;;;;;;;;5046241;28;19973;-69
2022/03/21 00:05:58;;;;;;;;;;;;;;;;;;5034146;28;19953;-69
2022/03/21 00:08:24;;;;;;;;;;;;;;;;;;5035241;28;19947;-69
2022/03/21 00:10:50;;;;;;;;;;;;;;;;;;5039826;28;19950;-68
2022/03/21 00:13:16;;;;;;;;;;;;;;;;;;5035129;28;19983;-67
2022/03/21 00:15:42;;;;;;;;;;;;;;;;;;5038290;28;19962;-66
2022/03/21 00:18:09;;;;;;;;;;;;;;;;;;5042835;28;19960;-67
2022/03/21 00:20:35;;;;;;;;;;;;;;;;;;5040159;28;19954;-67
2022/03/21 00:23:01;;;;;;;;;;;;;;;;;;5031532;28;19973;-67
2022/03/21 00:25:28;;;;;;;;;;;;;;;;;;5036486;28;20062;-66
2022/03/21 00:27:54;;;;;;;;;;;;;;;;;;5033878;28;20118;-67
2022/03/21 00:30:20;;;;;;;;;;;;;;;;;;5031304;28;19959;-68
2022/03/21 00:32:46;;;;;;;;;;;;;;;;;;5031850;28;19954;-68
2022/03/21 00:35:14;;;;;;;;;;;;;;;;;;5031068;28;20018;-68
2022/03/21 00:37:41;;;;;;;;;;;;;;;;;;5036333;28;20481;-68
2022/03/21 00:40:07;;;;;;;;;;;;;;;;;;5035282;28;19960;-68
2022/03/21 00:42:34;;;;;;;;;;;;;;;;;;5031445;28;20056;-68
2022/03/21 00:45:00;;;;;;;;;;;;;;;;;;5039905;28;20255;-69
2022/03/21 00:47:26;;;;;;;;;;;;;;;;;;5045020;28;19952;-69
2022/03/21 00:49:53;;;;;;;;;;;;;;;;;;5039279;28;20045;-68
2022/03/21 00:52:19;;;;;;;;;;;;;;;;;;5037295;28;20377;-68
2022/03/21 00:54:45;;;;;;;;;;;;;;;;;;5042127;28;20049;-68
2022/03/21 00:57:11;;;;;;;;;;;;;;;;;;5043883;28;19932;-67
2022/03/21 00:59:37;;;;;;;;;;;;;;;;;;5036907;28;20294;-68
2022/03/21 01:02:03;;;;;;;;;;;;;;;;;;5034914;28;19925;-68
2022/03/21 01:04:30;;;;;;;;;;;;;;;;;;5034693;28;19925;-69
2022/03/21 01:06:56;;;;;;;;;;;;;;;;;;5039082;28;19925;-69
2022/03/21 01:09:22;;;;;;;;;;;;;;;;;;5045199;28;19944;-71
2022/03/21 01:11:48;;;;;;;;;;;;;;;;;;5042806;28;20332;-71
2022/03/21 01:14:14;;;;;;;;;;;;;;;;;;5034330;28;19932;-71
2022/03/21 01:16:40;;;;;;;;;;;;;;;;;;5035954;28;19946;-70
2022/03/21 01:19:06;;;;;;;;;;;;;;;;;;5040126;28;20156;-71
2022/03/21 01:21:33;;;;;;;;;;;;;;;;;;5041135;28;19956;-71
2022/03/21 01:23:59;;;;;;;;;;;;;;;;;;5046337;28;20430;-71
2022/03/21 01:26:25;;;;;;;;;;;;;;;;;;5045875;28;19947;-71
2022/03/21 01:28:51;;;;;;;;;;;;;;;;;;5036190;28;20057;-71
2022/03/21 01:31:17;;;;;;;;;;;;;;;;;;5053188;28;20375;-70
2022/03/21 01:33:43;;;;;;;;;;;;;;;;;;5053474;28;19966;-70
2022/03/21 01:36:10;;;;;;;;;;;;;;;;;;5042668;28;19954;-71
2022/03/21 01:38:36;;;;;;;;;;;;;;;;;;5040038;28;20199;-71
2022/03/21 01:41:02;;;;;;;;;;;;;;;;;;5043202;28;19961;-69
2022/03/21 01:43:28;;;;;;;;;;;;;;;;;;5044661;28;19986;-66
2022/03/21 01:45:54;;;;;;;;;;;;;;;;;;5046963;28;19948;-67
2022/03/21 01:48:20;;;;;;;;;;;;;;;;;;5044681;28;19949;-66
2022/03/21 01:50:46;;;;;;;;;;;;;;;;;;5034120;28;20311;-67
2022/03/21 01:55:57;;;;;;;;;;;;;;;;;;5039279;28;19994;-68
2022/03/21 01:58:24;;;;;;;;;;;;;;;;;;5040836;28;19925;-68
2022/03/21 02:00:51;;;;;;;;;;;;;;;;;;5036431;28;20403;-67
2022/03/21 02:03:19;;;;;;;;;;;;;;;;;;5032953;28;19960;-67
2022/03/21 02:05:47;;;;;;;;;;;;;;;;;;5035765;28;19940;-66
2022/03/21 02:08:13;;;;;;;;;;;;;;;;;;5041594;28;19972;-66
2022/03/21 02:10:39;;;;;;;;;;;;;;;;;;5038498;28;20503;-68
2022/03/21 02:13:05;;;;;;;;;;;;;;;;;;5037160;28;19966;-67
2022/03/21 02:15:31;;;;;;;;;;;;;;;;;;5042955;28;19925;-67
2022/03/21 02:17:58;;;;;;;;;;;;;;;;;;5039967;28;19940;-68
2022/03/21 02:20:24;;;;;;;;;;;;;;;;;;5040015;28;20077;-66
2022/03/21 02:22:50;;;;;;;;;;;;;;;;;;5043442;28;19925;-67
2022/03/21 02:25:16;;;;;;;;;;;;;;;;;;5043410;28;20438;-66
2022/03/21 02:27:43;;;;;;;;;;;;;;;;;;5033092;28;20409;-66
2022/03/21 02:30:09;;;;;;;;;;;;;;;;;;5041035;28;19952;-69
2022/03/21 02:32:35;;;;;;;;;;;;;;;;;;5061889;28;20352;-67
2022/03/21 02:35:01;;;;;;;;;;;;;;;;;;5053984;28;19966;-67
2022/03/21 02:37:27;;;;;;;;;;;;;;;;;;5049480;28;19952;-67
2022/03/21 02:39:54;;;;;;;;;;;;;;;;;;5055205;28;19949;-67
2022/03/21 02:42:20;;;;;;;;;;;;;;;;;;5055656;28;19932;-68
2022/03/21 02:44:46;;;;;;;;;;;;;;;;;;5052088;28;19936;-70
2022/03/21 02:47:12;;;;;;;;;;;;;;;;;;5055542;28;19954;-70
2022/03/21 02:49:38;;;;;;;;;;;;;;;;;;5052724;28;20076;-65
2022/03/21 02:52:05;;;;;;;;;;;;;;;;;;5047761;28;19958;-66
2022/03/21 02:54:31;;;;;;;;;;;;;;;;;;5046831;28;19997;-67
2022/03/21 02:56:57;;;;;;;;;;;;;;;;;;5044778;28;19957;-66
2022/03/21 02:59:23;;;;;;;;;;;;;;;;;;5049730;28;20080;-69
2022/03/21 03:01:51;;;;;;;;;;;;;;;;;;5042063;28;20016;-67
2022/03/21 03:04:17;;;;;;;;;;;;;;;;;;5052563;28;20064;-68
2022/03/21 03:06:43;;;;;;;;;;;;;;;;;;5041344;28;19963;-66
2022/03/21 03:09:09;;;;;;;;;;;;;;;;;;5031732;28;19959;-67
2022/03/21 03:11:36;;;;;;;;;;;;;;;;;;5031743;28;21417;-64
2022/03/21 03:14:02;;;;;;;;;;;;;;;;;;5040061;28;20494;-66
2022/03/21 03:16:28;;;;;;;;;;;;;;;;;;5032463;28;19957;-65
2022/03/21 03:18:54;;;;;;;;;;;;;;;;;;5037386;28;19952;-64
2022/03/21 03:21:20;;;;;;;;;;;;;;;;;;5037322;28;19973;-65
2022/03/21 03:23:46;;;;;;;;;;;;;;;;;;5035368;28;19970;-65
2022/03/21 03:26:13;;;;;;;;;;;;;;;;;;5032145;28;19961;-66
2022/03/21 03:28:39;;;;;;;;;;;;;;;;;;5038356;28;19953;-66
2022/03/21 03:31:05;;;;;;;;;;;;;;;;;;5044019;28;19945;-69
2022/03/21 03:33:31;;;;;;;;;;;;;;;;;;5037835;28;19968;-70
2022/03/21 03:35:57;;;;;;;;;;;;;;;;;;5042983;28;20503;-71
2022/03/21 03:38:23;;;;;;;;;;;;;;;;;;5043108;28;19959;-70
2022/03/21 03:40:50;;;;;;;;;;;;;;;;;;5052076;28;19960;-71
2022/03/21 03:43:16;;;;;;;;;;;;;;;;;;5045829;28;19986;-70
2022/03/21 03:45:42;;;;;;;;;;;;;;;;;;5036614;28;20379;-71
2022/03/21 03:48:08;;;;;;;;;;;;;;;;;;5042296;28;19949;-71
2022/03/21 03:50:34;;;;;;;;;;;;;;;;;;5043063;28;19954;-72
2022/03/21 03:53:01;;;;;;;;;;;;;;;;;;5038757;28;19959;-72
2022/03/21 03:55:27;;;;;;;;;;;;;;;;;;5039583;28;19980;-72
2022/03/21 03:57:53;;;;;;;;;;;;;;;;;;5039743;28;19955;-74
2022/03/21 04:00:19;;;;;;;;;;;;;;;;;;5033803;28;20345;-74
2022/03/21 04:05:29;;;;;;;;;;;;;;;;;;5036222;28;20064;-75
2022/03/21 04:07:55;;;;;;;;;;;;;;;;;;5037679;28;19960;-74
2022/03/21 04:10:22;;;;;;;;;;;;;;;;;;5031236;28;19959;-66
2022/03/21 04:12:48;;;;;;;;;;;;;;;;;;5031548;28;20206;-66
2022/03/21 04:15:14;;;;;;;;;;;;;;;;;;5038717;28;19974;-66
2022/03/21 04:17:40;;;;;;;;;;;;;;;;;;5036429;28;19956;-66
2022/03/21 04:20:07;;;;;;;;;;;;;;;;;;5040726;28;19965;-66
2022/03/21 04:22:33;;;;;;;;;;;;;;;;;;5034271;28;19962;-66
2022/03/21 04:24:59;;;;;;;;;;;;;;;;;;5034990;28;19972;-66
2022/03/21 04:27:25;;;;;;;;;;;;;;;;;;5035668;28;19953;-71
2022/03/21 04:29:51;;;;;;;;;;;;;;;;;;5048848;28;19954;-71
2022/03/21 04:32:18;;;;;;;;;;;;;;;;;;5041260;28;19964;-69
2022/03/21 04:34:44;;;;;;;;;;;;;;;;;;5044538;28;19972;-69
2022/03/21 04:37:10;;;;;;;;;;;;;;;;;;5037137;28;20054;-69
2022/03/21 04:39:36;;;;;;;;;;;;;;;;;;5035141;28;19982;-69
2022/03/21 04:42:02;;;;;;;;;;;;;;;;;;5035114;28;19967;-69
2022/03/21 04:44:28;;;;;;;;;;;;;;;;;;5047370;28;19984;-67
2022/03/21 04:46:54;;;;;;;;;;;;;;;;;;5041948;28;19974;-67
2022/03/21 04:49:21;;;;;;;;;;;;;;;;;;5037391;28;19933;-68
2022/03/21 04:51:47;;;;;;;;;;;;;;;;;;5042445;28;20233;-67
2022/03/21 04:54:13;;;;;;;;;;;;;;;;;;5046063;28;19987;-68
2022/03/21 04:56:39;;;;;;;;;;;;;;;;;;5045451;28;20036;-69
2022/03/21 04:59:07;;;;;;;;;;;;;;;;;;5042135;28;19970;-69
2022/03/21 05:01:33;;;;;;;;;;;;;;;;;;5040077;28;20019;-69
2022/03/21 05:04:00;;;;;;;;;;;;;;;;;;5034231;28;19984;-69
2022/03/21 05:06:26;;;;;;;;;;;;;;;;;;5042741;28;20036;-69
2022/03/21 05:08:52;;;;;;;;;;;;;;;;;;5035571;28;20376;-70
2022/03/21 05:11:18;;;;;;;;;;;;;;;;;;5035423;28;19962;-70
2022/03/21 05:13:44;;;;;;;;;;;;;;;;;;5036137;28;20007;-70
2022/03/21 05:16:10;;;;;;;;;;;;;;;;;;5055269;28;19968;-68
2022/03/21 05:18:37;;;;;;;;;;;;;;;;;;5055165;28;19963;-68
2022/03/21 05:21:03;;;;;;;;;;;;;;;;;;5049826;28;19988;-69
2022/03/21 05:31:45;;;;;;;;;;;;;;;;;;5069474;22;20103;-62
2022/03/21 05:36:55;;;;;;;;;;;;;;;;;;5045347;28;19964;-61
2022/03/21 05:39:22;;;;;;;;;;;;;;;;;;5031207;28;19970;-61
2022/03/21 05:41:48;;;;;;;;;;;;;;;;;;5030701;28;20029;-61
2022/03/21 05:44:14;;;;;;;;;;;;;;;;;;5036979;28;19972;-62
2022/03/21 05:46:40;;;;;;;;;;;;;;;;;;5047614;28;19997;-62
2022/03/21 05:49:06;;;;;;;;;;;;;;;;;;5046048;28;19987;-65
2022/03/21 05:51:32;;;;;;;;;;;;;;;;;;5039333;28;20029;-68
2022/03/21 05:53:58;;;;;;;;;;;;;;;;;;5033452;28;19982;-68
2022/03/21 05:56:25;;;;;;;;;;;;;;;;;;5050654;28;19969;-68
2022/03/21 05:58:51;;;;;;;;;;;;;;;;;;5035610;28;20026;-68
2022/03/21 06:01:18;;;;;;;;;;;;;;;;;;5049417;28;20051;-68
2022/03/21 06:03:44;;;;;;;;;;;;;;;;;;5036532;28;20081;-68
2022/03/21 06:06:11;;;;;;;;;;;;;;;;;;5043462;28;20470;-68
2022/03/21 06:08:37;;;;;;;;;;;;;;;;;;4695297;28;10000052;-68
2022/03/21 06:11:08;;;;;;;;;;;;;;;;;;5034579;28;19978;-68
2022/03/21 06:13:34;;;;;;;;;;;;;;;;;;5045179;28;20049;-68
2022/03/21 06:16:03;;;;;;;;;;;;;;;;;;5045566;28;20051;-68
2022/03/21 06:18:29;;;;;;;;;;;;;;;;;;5041385;28;20060;-68
2022/03/21 06:20:55;;;;;;;;;;;;;;;;;;5041247;28;19925;-68
2022/03/21 06:23:21;;;;;;;;;;;;;;;;;;5026705;28;20317;-68
2022/03/21 06:25:47;;;;;;;;;;;;;;;;;;5040283;28;20096;-68
2022/03/21 06:28:13;;;;;;;;;;;;;;;;;;5038480;28;19975;-68
2022/03/21 06:30:39;;;;;;;;;;;;;;;;;;5041106;28;19964;-68
2022/03/21 06:33:06;;;;;;;;;;;;;;;;;;5036555;28;20082;-68
2022/03/21 06:35:32;;;;;;;;;;;;;;;;;;5042235;28;19975;-68
2022/03/21 06:37:58;;;;;;;;;;;;;;;;;;5035508;28;19976;-68
2022/03/21 06:40:25;;;;;;;;;;;;;;;;;;5041768;28;20233;-68
2022/03/21 06:42:51;;;;;;;;;;;;;;;;;;5046764;28;20117;-68
2022/03/21 06:45:17;;;;;;;;;;;;;;;;;;5040214;28;20257;-68
2022/03/21 06:47:43;;;;;;;;;;;;;;;;;;5042285;28;20296;-68
2022/03/21 06:50:10;;;;;;;;;;;;;;;;;;5042621;28;19970;-68
2022/03/21 06:52:38;;;;;;;;;;;;;;;;;;5026955;28;19969;-68
2022/03/21 06:55:05;;;;;;;;;;;;;;;;;;5028673;28;20051;-68
2022/03/21 06:57:31;;;;;;;;;;;;;;;;;;5042502;28;19985;-69
2022/03/21 06:59:58;;;;;;;;;;;;;;;;;;5035593;28;19970;-68
2022/03/21 07:02:24;;;;;;;;;;;;;;;;;;5041995;28;19987;-69
2022/03/21 07:04:50;;;;;;;;;;;;;;;;;;5031961;28;20010;-68
2022/03/21 07:07:16;;;;;;;;;;;;;;;;;;5040988;28;20009;-68
2022/03/21 07:09:42;;;;;;;;;;;;;;;;;;5044351;28;19960;-69
2022/03/21 07:12:08;;;;;;;;;;;;;;;;;;5026741;28;19962;-69
2022/03/21 07:14:35;;;;;;;;;;;;;;;;;;5026065;28;19929;-68
2022/03/21 07:17:01;;;;;;;;;;;;;;;;;;5043727;28;20065;-69
2022/03/21 07:19:28;;;;;;;;;;;;;;;;;;5044153;28;20412;-68
2022/03/21 07:21:54;;;;;;;;;;;;;;;;;;5033171;28;19965;-68
2022/03/21 07:24:20;;;;;;;;;;;;;;;;;;5026046;28;19985;-69
2022/03/21 07:26:46;;;;;;;;;;;;;;;;;;5030088;28;20471;-68
2022/03/21 07:29:12;;;;;;;;;;;;;;;;;;5039665;28;19955;-68
2022/03/21 07:31:39;;;;;;;;;;;;;;;;;;5043338;28;19953;-68
2022/03/21 07:34:05;;;;;;;;;;;;;;;;;;4688499;28;10000129;-67
2022/03/21 07:36:31;;;;;;;;;;;;;;;;;;5030446;28;19961;-68
2022/03/21 07:38:57;;;;;;;;;;;;;;;;;;5042729;28;20622;-68
2022/03/21 07:41:26;;;;;;;;;;;;;;;;;;5035943;28;20355;-68
2022/03/21 07:43:53;;;;;;;;;;;;;;;;;;5045067;28;20097;-68
2022/03/21 07:49:03;;;;;;;;;;;;;;;;;;5040578;28;20369;-69
2022/03/21 07:51:29;;;;;;;;;;;;;;;;;;5034889;28;20534;-69
2022/03/21 07:53:55;;;;;;;;;;;;;;;;;;5026281;28;19993;-70
2022/03/21 07:56:21;;;;;;;;;;;;;;;;;;5033126;28;19982;-70
2022/03/21 07:58:47;;;;;;;;;;;;;;;;;;5039551;28;19976;-70
2022/03/21 08:01:13;;;;;;;;;;;;;;;;;;5048010;28;19973;-70
2022/03/21 08:03:40;;;;;;;;;;;;;;;;;;5039171;28;20440;-68
2022/03/21 08:06:10;;;;;;;;;;;;;;;;;;5030661;28;19995;-69
2022/03/21 08:08:36;;;;;;;;;;;;;;;;;;5029600;28;19984;-69
2022/03/21 08:11:03;;;;;;;;;;;;;;;;;;5031675;28;19957;-69
2022/03/21 08:13:29;;;;;;;;;;;;;;;;;;5040551;28;19967;-69
2022/03/21 08:15:56;;;;;;;;;;;;;;;;;;5047225;28;19965;-70
2022/03/21 08:18:22;;;;;;;;;;;;;;;;;;5048951;28;19963;-68
2022/03/21 08:20:48;;;;;;;;;;;;;;;;;;5041506;28;20094;-68
2022/03/21 08:23:14;;;;;;;;;;;;;;;;;;5045018;28;19965;-68
2022/03/21 08:25:40;;;;;;;;;;;;;;;;;;5036873;28;19985;-68
2022/03/21 08:28:07;;;;;;;;;;;;;;;;;;5036501;28;19975;-68
2022/03/21 08:30:35;;;;;;;;;;;;;;;;;;5047224;28;20072;-68
2022/03/21 08:33:02;;;;;;;;;;;;;;;;;;5039048;28;19985;-68
2022/03/21 08:35:28;;;;;;;;;;;;;;;;;;5043375;28;20356;-69
2022/03/21 08:37:54;;;;;;;;;;;;;;;;;;5048101;28;20311;-69
2022/03/21 08:40:20;;;;;;;;;;;;;;;;;;5044414;28;19979;-69
2022/03/21 08:42:47;;;;;;;;;;;;;;;;;;5037125;28;19959;-68
2022/03/21 08:45:15;;;;;;;;;;;;;;;;;;5048265;28;19976;-69
2022/03/21 08:47:41;;;;;;;;;;;;;;;;;;5047199;28;19973;-69
2022/03/21 08:50:07;;;;;;;;;;;;;;;;;;5043077;28;19956;-69
2022/03/21 08:52:33;;;;;;;;;;;;;;;;;;5034494;28;19972;-69
2022/03/21 08:54:59;;;;;;;;;;;;;;;;;;5036205;28;20049;-68
2022/03/21 08:57:25;;;;;;;;;;;;;;;;;;5042412;28;19957;-68
2022/03/21 08:59:52;;;;;;;;;;;;;;;;;;5038540;28;19952;-68
2022/03/21 09:02:18;;;;;;;;;;;;;;;;;;5041496;28;20272;-68
2022/03/21 09:04:45;;;;;;;;;;;;;;;;;;5044275;28;19947;-70
2022/03/21 09:07:11;;;;;;;;;;;;;;;;;;5050421;28;20358;-69
2022/03/21 09:09:37;;;;;;;;;;;;;;;;;;5047519;28;19950;-69
2022/03/21 09:12:04;;;;;;;;;;;;;;;;;;5052173;28;19932;-69
2022/03/21 09:14:30;;;;;;;;;;;;;;;;;;5041178;28;19951;-67
2022/03/21 09:16:57;;;;;;;;;;;;;;;;;;5045737;28;19989;-70
2022/03/21 09:19:23;;;;;;;;;;;;;;;;;;5048352;28;20011;-68
2022/03/21 09:21:50;;;;;;;;;;;;;;;;;;5038175;28;19937;-70
2022/03/21 09:24:16;;;;;;;;;;;;;;;;;;5046000;28;20372;-68
2022/03/21 09:26:42;;;;;;;;;;;;;;;;;;5049210;28;19967;-68
2022/03/21 09:29:11;;;;;;;;;;;;;;;;;;5031326;28;19968;-68
2022/03/21 09:31:38;;;;;;;;;;;;;;;;;;5028912;28;19999;-68
2022/03/21 09:34:04;;;;;;;;;;;;;;;;;;5028466;28;19956;-68
2022/03/21 09:36:30;;;;;;;;;;;;;;;;;;5041990;28;19929;-68
2022/03/21 09:38:57;;;;;;;;;;;;;;;;;;5041650;28;19944;-68
2022/03/21 09:41:23;;;;;;;;;;;;;;;;;;5040483;28;19966;-69
2022/03/21 09:43:50;;;;;;;;;;;;;;;;;;5040776;28;19951;-68
2022/03/21 09:46:16;;;;;;;;;;;;;;;;;;5044533;28;19968;-69
2022/03/21 09:48:42;;;;;;;;;;;;;;;;;;5045226;28;19929;-69
2022/03/21 09:51:08;;;;;;;;;;;;;;;;;;5046245;28;20369;-69
2022/03/21 09:53:34;;;;;;;;;;;;;;;;;;5032202;28;19929;-69
2022/03/21 09:56:01;;;;;;;;;;;;;;;;;;5031411;28;19929;-69
2022/03/21 09:58:30;;;;;;;;;;;;;;;;;;5039411;28;19925;-69
2022/03/21 10:00:56;;;;;;;;;;;;;;;;;;5035407;28;20384;-69
2022/03/21 10:03:22;;;;;;;;;;;;;;;;;;5027633;28;20417;-69
2022/03/21 10:05:49;;;;;;;;;;;;;;;;;;5028901;28;19929;-69
2022/03/21 10:08:15;;;;;;;;;;;;;;;;;;5044929;28;19936;-69
2022/03/21 10:10:41;;;;;;;;;;;;;;;;;;5038630;28;19929;-69
2022/03/21 10:13:09;;;;;;;;;;;;;;;;;;5036214;28;19929;-69
2022/03/21 10:15:35;;;;;;;;;;;;;;;;;;5037997;28;20027;-69
2022/03/21 10:18:01;;;;;;;;;;;;;;;;;;5039883;28;19924;-69
2022/03/21 10:20:28;;;;;;;;;;;;;;;;;;5038975;28;19932;-69
2022/03/21 10:22:54;;;;;;;;;;;;;;;;;;5032144;28;19936;-69
2022/03/21 10:25:21;;;;;;;;;;;;;;;;;;5048553;28;20251;-70
2022/03/21 10:27:47;;;;;;;;;;;;;;;;;;5045404;28;20024;-70
2022/03/21 10:30:15;;;;;;;;;;;;;;;;;;5047783;28;20321;-69
2022/03/21 10:32:42;;;;;;;;;;;;;;;;;;5044506;28;19928;-69
2022/03/21 10:35:08;;;;;;;;;;;;;;;;;;5045921;28;20015;-70
2022/03/21 10:37:34;;;;;;;;;;;;;;;;;;5044284;28;19932;-69
2022/03/21 10:40:00;;;;;;;;;;;;;;;;;;5038665;28;19925;-68
2022/03/21 10:42:26;;;;;;;;;;;;;;;;;;5031026;28;19959;-68
2022/03/21 10:44:53;;;;;;;;;;;;;;;;;;5042560;28;19925;-68
2022/03/21 10:47:19;;;;;;;;;;;;;;;;;;5047730;28;19933;-68
2022/03/21 10:49:46;;;;;;;;;;;;;;;;;;5042833;28;19925;-68
2022/03/21 10:52:13;;;;;;;;;;;;;;;;;;5036572;28;19925;-68
2022/03/21 10:54:39;;;;;;;;;;;;;;;;;;5044285;28;19925;-68
2022/03/21 10:57:05;;;;;;;;;;;;;;;;;;5048356;28;19931;-68
2022/03/21 10:59:31;;;;;;;;;;;;;;;;;;5045222;28;20004;-68
2022/03/21 11:01:57;;;;;;;;;;;;;;;;;;5036310;28;20116;-71
2022/03/21 11:04:23;;;;;;;;;;;;;;;;;;5042815;28;19925;-68
2022/03/21 11:06:50;;;;;;;;;;;;;;;;;;5048648;28;20016;-68
2022/03/21 11:09:16;;;;;;;;;;;;;;;;;;5038134;28;19936;-69
2022/03/21 11:11:42;;;;;;;;;;;;;;;;;;5049883;28;20401;-69
2022/03/21 11:14:08;;;;;;;;;;;;;;;;;;5040547;28;20133;-70
2022/03/21 11:16:34;;;;;;;;;;;;;;;;;;5046479;28;19931;-69
2022/03/21 11:19:00;;;;;;;;;;;;;;;;;;5048720;28;20007;-70
2022/03/21 11:21:26;;;;;;;;;;;;;;;;;;5040238;28;19925;-69
2022/03/21 11:23:53;;;;;;;;;;;;;;;;;;5033588;28;19939;-70
2022/03/21 11:26:19;;;;;;;;;;;;;;;;;;4693949;28;10000584;-69
2022/03/21 11:28:45;;;;;;;;;;;;;;;;;;5040558;28;19936;-69
2022/03/21 11:31:11;;;;;;;;;;;;;;;;;;5038610;28;20301;-69
2022/03/21 11:33:37;;;;;;;;;;;;;;;;;;5027247;28;19964;-69
2022/03/21 11:36:03;;;;;;;;;;;;;;;;;;5037165;28;19936;-69
2022/03/21 11:38:29;;;;;;;;;;;;;;;;;;5037399;28;19944;-70
2022/03/21 11:40:56;;;;;;;;;;;;;;;;;;5027480;28;19929;-70
2022/03/21 11:43:22;;;;;;;;;;;;;;;;;;5034135;28;20383;-70
2022/03/21 11:45:50;;;;;;;;;;;;;;;;;;5037055;28;20405;-69
2022/03/21 11:48:16;;;;;;;;;;;;;;;;;;5041235;28;19936;-69
2022/03/21 11:50:42;;;;;;;;;;;;;;;;;;5042495;28;19929;-69
2022/03/21 11:53:09;;;;;;;;;;;;;;;;;;5033563;28;19937;-70
2022/03/21 11:55:35;;;;;;;;;;;;;;;;;;5042206;28;19929;-69
2022/03/21 11:58:01;;;;;;;;;;;;;;;;;;5036086;28;20401;-70
2022/03/21 12:00:27;;;;;;;;;;;;;;;;;;5042587;28;19928;-70
2022/03/21 12:02:54;;;;;;;;;;;;;;;;;;5040805;28;19929;-70
2022/03/21 12:05:20;;;;;;;;;;;;;;;;;;5030829;28;19968;-70
2022/03/21 12:07:46;;;;;;;;;;;;;;;;;;5027150;28;20309;-69
2022/03/21 12:10:12;;;;;;;;;;;;;;;;;;5026343;28;19944;-69
2022/03/21 12:12:38;;;;;;;;;;;;;;;;;;5036234;28;19925;-69
2022/03/21 12:15:04;;;;;;;;;;;;;;;;;;5037733;28;19929;-71
2022/03/21 12:17:31;;;;;;;;;;;;;;;;;;5043397;28;20429;-71
2022/03/21 12:19:58;;;;;;;;;;;;;;;;;;5045865;28;20398;-68
2022/03/21 12:22:24;;;;;;;;;;;;;;;;;;5033782;28;19929;-68
2022/03/21 12:24:50;;;;;;;;;;;;;;;;;;5038310;28;19929;-71
2022/03/21 12:27:16;;;;;;;;;;;;;;;;;;5029853;28;19929;-69
2022/03/21 12:29:44;;;;;;;;;;;;;;;;;;5042294;28;20462;-69
2022/03/21 12:32:10;;;;;;;;;;;;;;;;;;5045020;28;19928;-71
2022/03/21 12:34:37;;;;;;;;;;;;;;;;;;5038650;28;19936;-70
2022/03/21 12:37:03;;;;;;;;;;;;;;;;;;5038208;28;19929;-68
2022/03/21 12:39:29;;;;;;;;;;;;;;;;;;5028645;28;19933;-69
2022/03/21 12:41:55;;;;;;;;;;;;;;;;;;5044248;28;19936;-69
2022/03/21 12:44:21;;;;;;;;;;;;;;;;;;5045696;28;19940;-70
2022/03/21 12:46:48;;;;;;;;;;;;;;;;;;5044886;28;19929;-69
2022/03/21 12:49:14;;;;;;;;;;;;;;;;;;5041100;28;19944;-68
2022/03/21 12:51:40;;;;;;;;;;;;;;;;;;5036050;28;20374;-70
2022/03/21 12:54:06;;;;;;;;;;;;;;;;;;5035414;28;19928;-70
2022/03/21 12:56:32;;;;;;;;;;;;;;;;;;5032757;28;20330;-70
2022/03/21 12:58:58;;;;;;;;;;;;;;;;;;5038207;28;19932;-70
2022/03/21 13:01:25;;;;;;;;;;;;;;;;;;5047754;28;19928;-70
2022/03/21 13:03:51;;;;;;;;;;;;;;;;;;5044531;28;19929;-70
2022/03/21 13:11:45;;;;;;;;;;;;;;;;;;5046574;28;19924;-70
2022/03/21 13:14:13;;;;;;;;;;;;;;;;;;5046022;28;19936;-71
2022/03/21 13:16:40;;;;;;;;;;;;;;;;;;5042474;28;19933;-70
2022/03/21 13:19:07;;;;;;;;;;;;;;;;;;5045278;28;19925;-70
2022/03/21 13:21:34;;;;;;;;;;;;;;;;;;5040866;28;20358;-70
2022/03/21 13:24:00;;;;;;;;;;;;;;;;;;5034857;28;20011;-69
2022/03/21 13:26:27;;;;;;;;;;;;;;;;;;5036719;28;19951;-70
2022/03/21 13:28:53;;;;;;;;;;;;;;;;;;5037390;28;19943;-68
2022/03/21 13:31:19;;;;;;;;;;;;;;;;;;5039261;28;20019;-70
2022/03/21 13:33:45;;;;;;;;;;;;;;;;;;5042990;28;19925;-70
2022/03/21 13:36:12;;;;;;;;;;;;;;;;;;5040036;28;19928;-69
2022/03/21 13:38:39;;;;;;;;;;;;;;;;;;5031479;28;19975;-70
2022/03/21 13:41:05;;;;;;;;;;;;;;;;;;5044080;28;20389;-67
2022/03/21 13:43:32;;;;;;;;;;;;;;;;;;5043304;28;19940;-68
2022/03/21 13:45:58;;;;;;;;;;;;;;;;;;5043841;28;19929;-68
2022/03/21 13:48:25;;;;;;;;;;;;;;;;;;5039784;28;19935;-68
2022/03/21 13:50:51;;;;;;;;;;;;;;;;;;5045271;28;19929;-69
2022/03/21 13:53:17;;;;;;;;;;;;;;;;;;5042353;28;19936;-67
2022/03/21 13:55:43;;;;;;;;;;;;;;;;;;5038902;28;19928;-68
2022/03/21 13:58:10;;;;;;;;;;;;;;;;;;5041976;28;19935;-70
2022/03/21 14:00:37;;;;;;;;;;;;;;;;;;5039726;28;20082;-69
2022/03/21 14:03:07;;;;;;;;;;;;;;;;;;5036949;28;19931;-68
2022/03/21 14:05:34;;;;;;;;;;;;;;;;;;5042648;28;19973;-68
2022/03/21 14:08:00;;;;;;;;;;;;;;;;;;5047967;28;20395;-68
2022/03/21 14:10:26;;;;;;;;;;;;;;;;;;5043531;28;19928;-68
2022/03/21 14:12:52;;;;;;;;;;;;;;;;;;5044213;28;19944;-68
2022/03/21 14:15:19;;;;;;;;;;;;;;;;;;5036686;28;19935;-68
2022/03/21 14:17:46;;;;;;;;;;;;;;;;;;5042112;28;20044;-68
2022/03/21 14:20:12;;;;;;;;;;;;;;;;;;5044002;28;19929;-69
2022/03/21 14:22:39;;;;;;;;;;;;;;;;;;5039997;28;19948;-68
2022/03/21 14:26:29;;;;;;;;;;;;;;;;;;5038413;28;19933;-69
2022/03/21 14:27:52;;;;;;;;;;;;;;;;;;5039823;28;19970;-68
2022/03/21 14:30:18;;;;;;;;;;;;;;;;;;5033560;28;20387;-68
2022/03/21 14:32:45;;;;;;;;;;;;;;;;;;5037881;28;19925;-68
2022/03/21 14:35:12;;;;;;;;;;;;;;;;;;5027237;28;19929;-68
2022/03/21 14:37:38;;;;;;;;;;;;;;;;;;5027447;28;20184;-68
2022/03/21 14:40:04;;;;;;;;;;;;;;;;;;5027929;28;19928;-68
2022/03/21 14:42:30;;;;;;;;;;;;;;;;;;5039667;28;20322;-68
2022/03/21 14:44:56;;;;;;;;;;;;;;;;;;5042005;28;19939;-68
2022/03/21 14:47:23;;;;;;;;;;;;;;;;;;5043055;28;19986;-68
2022/03/21 14:49:49;;;;;;;;;;;;;;;;;;5038944;28;20408;-68
2022/03/21 14:52:15;;;;;;;;;;;;;;;;;;5044437;28;20328;-68
2022/03/21 14:54:42;;;;;;;;;;;;;;;;;;5040247;28;19933;-68
2022/03/21 14:57:08;;;;;;;;;;;;;;;;;;5043786;28;20013;-68
2022/03/21 14:59:34;;;;;;;;;;;;;;;;;;5028290;28;19963;-68
2022/03/21 15:02:01;;;;;;;;;;;;;;;;;;5033148;28;19933;-68
2022/03/21 15:04:27;;;;;;;;;;;;;;;;;;5032691;28;19982;-68
2022/03/21 15:06:53;;;;;;;;;;;;;;;;;;5033610;28;20305;-68
2022/03/21 15:09:19;;;;;;;;;;;;;;;;;;5034020;28;20382;-67
2022/03/21 15:11:46;;;;;;;;;;;;;;;;;;5033740;28;19928;-68
2022/03/21 15:14:12;;;;;;;;;;;;;;;;;;5029435;28;20345;-68
2022/03/21 15:16:40;;;;;;;;;;;;;;;;;;5036165;28;19928;-68
2022/03/21 15:19:07;;;;;;;;;;;;;;;;;;5036047;28;19935;-69
2022/03/21 15:21:33;;;;;;;;;;;;;;;;;;5040868;28;19939;-70
2022/03/21 15:23:59;;;;;;;;;;;;;;;;;;5037664;28;19925;-70
2022/03/21 15:26:25;;;;;;;;;;;;;;;;;;5038968;28;20225;-69
2022/03/21 15:28:52;;;;;;;;;;;;;;;;;;5043064;28;19929;-70
2022/03/21 15:31:18;;;;;;;;;;;;;;;;;;5039157;28;19936;-69
2022/03/21 15:33:44;;;;;;;;;;;;;;;;;;5044976;28;20397;-69
2022/03/21 15:41:40;;;;;;;;;;;;;;;;;;5036883;28;19924;-68
2022/03/21 15:44:07;;;;;;;;;;;;;;;;;;5040186;28;19964;-68
2022/03/21 15:46:33;;;;;;;;;;;;;;;;;;5038546;28;19925;-68
2022/03/21 15:48:59;;;;;;;;;;;;;;;;;;5041391;28;19924;-68
2022/03/21 15:51:25;;;;;;;;;;;;;;;;;;5033808;28;19960;-68
2022/03/21 15:53:51;;;;;;;;;;;;;;;;;;5029466;28;19925;-69
2022/03/21 15:56:18;;;;;;;;;;;;;;;;;;5040329;28;19936;-69
2022/03/21 15:58:44;;;;;;;;;;;;;;;;;;5028178;28;19975;-70
2022/03/21 16:01:11;;;;;;;;;;;;;;;;;;5041137;28;20011;-69
2022/03/21 16:03:38;;;;;;;;;;;;;;;;;;5045570;28;19936;-69
2022/03/21 16:06:04;;;;;;;;;;;;;;;;;;5028877;28;19925;-69
2022/03/21 16:08:32;;;;;;;;;;;;;;;;;;5044529;28;19928;-69
2022/03/21 16:10:58;;;;;;;;;;;;;;;;;;5033776;28;19936;-69
2022/03/21 16:13:25;;;;;;;;;;;;;;;;;;5045937;28;19936;-68
2022/03/21 16:15:53;;;;;;;;;;;;;;;;;;5045689;28;19940;-68
2022/03/21 16:18:21;;;;;;;;;;;;;;;;;;5041313;28;19932;-68
2022/03/21 16:20:47;;;;;;;;;;;;;;;;;;5048929;28;19936;-67
2022/03/21 16:23:13;;;;;;;;;;;;;;;;;;5043087;28;20099;-67
2022/03/21 16:25:40;;;;;;;;;;;;;;;;;;5037846;28;19935;-67
2022/03/21 16:28:06;;;;;;;;;;;;;;;;;;5043318;28;19929;-54
2022/03/21 16:30:32;;;;;;;;;;;;;;;;;;5036478;28;19939;-67
2022/03/21 16:32:59;;;;;;;;;;;;;;;;;;5029195;28;20562;-69
2022/03/21 16:35:25;;;;;;;;;;;;;;;;;;5030278;28;20572;-69
2022/03/21 16:37:51;;;;;;;;;;;;;;;;;;5042672;28;20048;-68
2022/03/21 16:40:19;;;;;;;;;;;;;;;;;;5030541;28;19936;-68
2022/03/21 16:42:46;;;;;;;;;;;;;;;;;;5041470;28;19963;-67
2022/03/21 16:45:12;;;;;;;;;;;;;;;;;;5045919;28;20388;-70
2022/03/21 16:47:39;;;;;;;;;;;;;;;;;;5039620;28;19932;-69
2022/03/21 16:50:07;;;;;;;;;;;;;;;;;;5042630;28;19928;-69
2022/03/21 16:52:33;;;;;;;;;;;;;;;;;;5039267;28;19940;-69
2022/03/21 16:54:59;;;;;;;;;;;;;;;;;;5034604;28;19933;-69
2022/03/21 16:57:25;;;;;;;;;;;;;;;;;;5038663;28;19929;-68
2022/03/21 16:59:52;;;;;;;;;;;;;;;;;;5035990;28;20420;-69
2022/03/21 17:02:19;;;;;;;;;;;;;;;;;;5039042;28;19975;-69
2022/03/21 17:04:45;;;;;;;;;;;;;;;;;;5037974;28;19983;-69
2022/03/21 17:07:12;;;;;;;;;;;;;;;;;;5033978;28;19933;-68
2022/03/21 17:09:38;;;;;;;;;;;;;;;;;;5034930;28;20381;-69